Terminal Aerodrome Forecast
Issued by NWS

Home | Current Version | Previous Version | Text Only | Print | Product List | Glossary Off
Versions: 1 2 3 4 5 6 7 8 9 10 11 12

000
FTUS45 KGGW 150536
TAFGDV
TAF
KGDV 150536Z 1506/1606 36010KT P6SM VCSH OVC035
     FM150700 01012KT 6SM BLSN VCSH OVC030
     FM150900 36017KT 2SM -SN BLSN OVC017
     FM151300 36017KT 1 1/2SM -SHSN BLSN OVC013
     FM151600 35013KT P6SM OVC035
     FM151900 32012KT P6SM BKN060
     FM160200 25009KT P6SM SKC=

USA.gov is the U.S. government's official web portal to all federal, state and local government web resources and services.